Time;durP1;ratioP1;P1;durP2;ratioP2;P2;SDS_P1;SDS_P2;PMS_P1;PMS_P2;Temp;Humidity;BMP_temperature;BMP_pressure;BME280_temperature;BME280_humidity;BME280_pressure;Samples;Min_cycle;Max_cycle;Signal;HPM_P1;HPM_P2
2021/06/06 00:01:14;;;;;;;6.30;4.80;;;;;;;15.29;94.56;100205.81;6348120;28;20047;-61
2021/06/06 00:04:19;;;;;;;5.68;4.53;;;;;;;15.27;95.03;100199.00;6347998;28;20044;-61
2021/06/06 00:07:20;;;;;;;5.22;4.55;;;;;;;15.24;95.18;100207.97;6349201;28;20050;-61
2021/06/06 00:10:21;;;;;;;9.20;4.90;;;;;;;15.19;95.13;100204.03;6348620;28;20060;-60
2021/06/06 00:13:23;;;;;;;6.65;4.45;;;;;;;15.15;95.95;100205.22;6348962;28;20055;-60
2021/06/06 00:16:29;;;;;;;;;;;;;;;15.14;96.20;100207.03;6348004;28;20138;-61
2021/06/06 00:19:31;;;;;;;5.60;4.50;;;;;;;15.18;95.19;100213.72;6348668;28;19920;-60
2021/06/06 00:22:32;;;;;;;6.07;5.20;;;;;;;15.18;95.82;100210.25;6348682;28;20040;-61
2021/06/06 00:25:32;;;;;;;7.88;5.10;;;;;;;15.18;96.10;100199.75;6348014;28;20043;-60
2021/06/06 00:28:37;;;;;;;6.50;5.28;;;;;;;15.11;96.19;100199.38;6348475;28;20059;-61
2021/06/06 00:31:38;;;;;;;8.13;5.10;;;;;;;15.15;95.78;100192.91;6348424;28;20394;-61
2021/06/06 00:34:40;;;;;;;7.55;5.20;;;;;;;15.06;96.50;100189.22;6347091;28;20055;-61
2021/06/06 00:37:42;;;;;;;7.93;5.65;;;;;;;15.03;96.09;100192.09;6330771;28;20048;-61
2021/06/06 00:40:42;;;;;;;7.22;5.40;;;;;;;14.97;96.76;100189.09;6348224;28;20039;-61
2021/06/06 00:43:44;;;;;;;6.30;5.30;;;;;;;14.84;97.56;100187.41;6346913;28;20502;-61
2021/06/06 00:46:45;;;;;;;5.87;5.03;;;;;;;14.92;96.89;100194.69;6348183;28;20429;-60
2021/06/06 00:49:46;;;;;;;6.75;5.43;;;;;;;14.89;96.54;100189.69;6346713;28;20053;-61
2021/06/06 00:52:50;;;;;;;5.95;5.15;;;;;;;14.82;97.05;100196.34;6346702;28;20070;-60
2021/06/06 00:55:51;;;;;;;9.20;5.85;;;;;;;14.81;97.16;100190.28;6347772;28;20047;-60
2021/06/06 00:58:55;;;;;;;8.93;6.07;;;;;;;14.68;97.71;100187.75;6346583;28;20109;-61
2021/06/06 01:01:56;;;;;;;6.63;5.35;;;;;;;14.71;97.40;100181.44;6347652;28;20413;-61
2021/06/06 01:04:56;;;;;;;7.70;5.72;;;;;;;14.64;97.45;100175.81;6346463;28;20068;-61
2021/06/06 01:07:59;;;;;;;8.88;5.95;;;;;;;14.45;98.27;100180.72;6347427;28;20044;-60
2021/06/06 01:11:19;;;;;;;7.93;5.90;;;;;;;14.48;98.34;100189.22;6347294;28;20051;-60
2021/06/06 01:14:26;;;;;;;8.40;6.25;;;;;;;14.50;98.58;100182.06;6347369;28;20149;-61
2021/06/06 01:17:40;;;;;;;9.60;5.85;;;;;;;14.52;97.77;100182.78;6347519;28;20047;-60
2021/06/06 01:21:22;;;;;;;12.30;6.10;;;;;;;14.49;97.84;100183.00;6345922;28;20151;-60
2021/06/06 01:24:37;;;;;;;9.10;6.40;;;;;;;14.48;98.09;100177.88;6346769;28;20055;-61
2021/06/06 01:27:44;;;;;;;9.15;6.50;;;;;;;14.43;98.18;100178.25;6347095;28;20040;-60
2021/06/06 01:30:49;;;;;;;10.05;6.78;;;;;;;14.39;98.57;100174.19;6347025;28;20056;-61
2021/06/06 01:33:57;;;;;;;8.52;7.00;;;;;;;14.41;97.89;100174.91;6347097;28;20043;-61
2021/06/06 01:37:11;;;;;;;10.45;6.60;;;;;;;14.34;98.45;100178.09;6346040;28;20053;-61
2021/06/06 01:40:16;;;;;;;9.80;7.47;;;;;;;14.30;98.35;100174.84;6346984;28;20051;-60
2021/06/06 01:43:23;;;;;;;7.07;6.28;;;;;;;14.32;97.91;100168.53;6346650;28;20541;-61
2021/06/06 01:46:29;;;;;;;10.07;7.82;;;;;;;14.30;97.61;100167.81;6346615;28;20238;-61
2021/06/06 01:49:33;;;;;;;8.68;7.03;;;;;;;14.13;98.98;100167.41;6346538;28;20067;-61
2021/06/06 01:52:37;;;;;;;10.77;7.53;;;;;;;14.09;99.26;100164.16;6345297;28;20044;-61
2021/06/06 01:55:51;;;;;;;10.88;7.80;;;;;;;14.13;98.46;100176.09;6346601;28;20520;-61
2021/06/06 01:58:55;;;;;;;9.35;7.55;;;;;;;14.05;98.75;100167.97;6346361;28;20047;-60
2021/06/06 02:01:56;;;;;;;11.35;8.32;;;;;;;14.01;98.52;100172.59;6346309;28;20395;-59
2021/06/06 02:04:57;;;;;;;10.25;8.18;;;;;;;14.01;98.69;100161.28;6346397;28;20454;-59
2021/06/06 02:08:01;;;;;;;9.87;8.30;;;;;;;13.97;99.17;100159.81;6346540;28;20079;-58
2021/06/06 02:11:16;;;;;;;11.95;8.57;;;;;;;13.94;99.09;100171.38;6346176;28;20430;-60
2021/06/06 02:14:21;;;;;;;11.30;8.55;;;;;;;13.88;98.50;100171.84;6346334;28;20138;-61
2021/06/06 02:17:30;;;;;;;14.80;8.75;;;;;;;13.80;98.77;100164.50;6345183;28;20055;-61
2021/06/06 02:20:36;;;;;;;13.90;9.13;;;;;;;13.81;98.89;100171.41;6346139;28;20051;-61
2021/06/06 02:23:41;;;;;;;11.63;9.20;;;;;;;13.79;99.74;100172.47;6362128;27;20093;-60
2021/06/06 02:26:55;;;;;;;11.70;9.65;;;;;;;13.74;98.93;100179.88;6346026;28;20054;-61
2021/06/06 02:30:27;;;;;;;10.40;9.32;;;;;;;13.71;99.68;100178.28;6344713;28;20054;-61
2021/06/06 02:33:34;;;;;;;11.10;9.90;;;;;;;13.65;99.68;100178.72;6345982;28;20084;-61
2021/06/06 02:36:36;;;;;;;10.90;9.65;;;;;;;13.60;99.54;100184.28;6346064;28;20043;-61
2021/06/06 02:39:41;;;;;;;16.70;9.38;;;;;;;13.61;99.87;100172.03;6345898;28;20039;-60
2021/06/06 02:42:44;;;;;;;11.95;9.52;;;;;;;13.60;99.90;100184.28;6346018;28;20055;-61
2021/06/06 02:45:45;;;;;;;11.00;9.27;;;;;;;13.57;100.00;100183.66;6345898;28;20052;-61
2021/06/06 02:48:52;;;;;;;16.83;10.60;;;;;;;13.55;100.00;100183.81;6349566;28;20409;-61
2021/06/06 02:52:02;;;;;;;14.88;10.65;;;;;;;13.52;100.00;100189.25;6350725;28;20109;-61
2021/06/06 02:55:17;;;;;;;11.52;10.32;;;;;;;13.50;100.00;100178.03;6349731;28;20040;-60
2021/06/06 02:58:24;;;;;;;17.33;10.52;;;;;;;13.54;100.00;100174.25;6349420;28;20039;-61
2021/06/06 03:01:30;;;;;;;17.90;10.82;;;;;;;13.59;100.00;100181.78;6350589;28;20047;-61
2021/06/06 03:04:33;;;;;;;17.17;11.40;;;;;;;13.59;100.00;100180.00;6350583;28;20035;-59
2021/06/06 03:07:35;;;;;;;;;;;;;;;13.55;100.00;100189.03;6349614;28;20415;-59
2021/06/06 03:10:38;;;;;;;18.02;11.50;;;;;;;13.57;100.00;100188.91;6348964;28;20089;-60
2021/06/06 03:13:51;;;;;;;14.43;11.43;;;;;;;13.54;100.00;100191.78;6350199;28;20082;-61
2021/06/06 03:17:09;;;;;;;16.75;11.73;;;;;;;13.57;100.00;100187.16;6350288;28;20043;-61
2021/06/06 03:20:16;;;;;;;17.10;11.63;;;;;;;13.65;100.00;100189.19;6350193;28;20122;-61
2021/06/06 03:23:22;;;;;;;15.35;11.52;;;;;;;13.66;100.00;100178.63;6350065;27;20048;-61
2021/06/06 03:26:24;;;;;;;14.60;11.85;;;;;;;13.72;100.00;100184.38;6350080;28;20470;-60
2021/06/06 03:29:30;;;;;;;14.52;11.75;;;;;;;13.68;100.00;100191.63;6348754;28;20043;-61
2021/06/06 03:32:36;;;;;;;14.80;12.23;;;;;;;13.74;100.00;100195.59;6348510;28;20078;-61
2021/06/06 03:35:37;;;;;;;13.02;11.20;;;;;;;13.73;100.00;100199.16;6349924;28;20043;-61
2021/06/06 03:38:38;;;;;;;19.20;12.30;;;;;;;13.73;100.00;100194.72;6349700;28;20130;-61
2021/06/06 03:41:39;;;;;;;15.93;12.43;;;;;;;13.73;100.00;100194.72;6348574;28;20056;-62
2021/06/06 03:44:40;;;;;;;17.25;12.52;;;;;;;13.74;100.00;100193.81;6349520;28;20126;-61
2021/06/06 03:47:41;;;;;;;14.18;11.90;;;;;;;13.79;100.00;100202.16;6349543;28;20047;-61
2021/06/06 03:50:42;;;;;;;14.80;12.52;;;;;;;13.80;100.00;100195.16;6349373;28;20078;-61
2021/06/06 03:53:44;;;;;;;14.97;11.87;;;;;;;13.83;100.00;100197.53;6349745;28;20043;-61
2021/06/06 03:56:47;;;;;;;16.27;12.63;;;;;;;13.87;100.00;100199.81;6348134;28;20036;-61
2021/06/06 03:59:48;;;;;;;15.13;12.38;;;;;;;13.90;100.00;100196.16;6348129;28;20036;-61
2021/06/06 04:02:48;;;;;;;16.02;12.05;;;;;;;13.96;100.00;100202.72;6349187;28;20130;-61
2021/06/06 04:05:50;;;;;;;14.68;12.32;;;;;;;13.93;100.00;100198.56;6347714;28;20050;-61
2021/06/06 04:08:51;;;;;;;15.67;12.70;;;;;;;14.01;100.00;100200.63;6348871;28;20066;-61
2021/06/06 04:11:52;;;;;;;13.70;11.88;;;;;;;14.05;100.00;100199.44;6347786;28;20280;-61
2021/06/06 04:14:53;;;;;;;15.10;11.07;;;;;;;14.10;100.00;100195.53;6347550;28;20051;-61
2021/06/06 04:17:54;;;;;;;15.75;12.25;;;;;;;14.09;100.00;100201.72;6348733;28;20075;-61
2021/06/06 04:20:57;;;;;;;13.75;11.70;;;;;;;14.20;100.00;100200.09;6348771;28;20484;-61
2021/06/06 04:23:58;;;;;;;16.05;12.27;;;;;;;14.23;100.00;100197.25;6348603;28;20157;-61
2021/06/06 04:26:59;;;;;;;16.75;11.38;;;;;;;14.30;100.00;100201.91;6348594;28;20497;-61
2021/06/06 04:30:00;;;;;;;14.38;11.75;;;;;;;14.37;100.00;100204.09;6348571;28;20047;-61
2021/06/06 04:33:06;;;;;;;14.32;10.68;;;;;;;14.40;100.00;100207.34;6348383;28;20040;-61
2021/06/06 04:36:08;;;;;;;12.57;10.73;;;;;;;14.40;100.00;100207.34;6348434;28;20432;-61
2021/06/06 04:39:08;;;;;;;11.93;10.30;;;;;;;14.45;100.00;100210.44;6348144;28;20064;-61
2021/06/06 04:42:10;;;;;;;11.95;10.10;;;;;;;14.52;100.00;100214.28;6348436;28;20413;-62
2021/06/06 04:45:13;;;;;;;13.55;9.88;;;;;;;14.54;99.68;100222.06;6348128;28;20227;-61
2021/06/06 04:48:22;;;;;;;12.63;9.50;;;;;;;14.49;99.50;100219.75;6348169;28;20044;-61
2021/06/06 04:51:24;;;;;;;13.05;9.77;;;;;;;14.56;100.00;100220.19;6347911;28;20104;-61
2021/06/06 04:54:24;;;;;;;10.82;9.57;;;;;;;14.58;99.58;100218.28;6347925;28;20039;-61
2021/06/06 04:57:25;;;;;;;13.25;10.23;;;;;;;14.65;100.00;100224.75;6347829;27;20046;-61
2021/06/06 05:00:30;;;;;;;11.88;9.55;;;;;;;14.74;100.00;100225.00;6347857;28;20043;-61
2021/06/06 05:03:30;;;;;;;12.07;10.05;;;;;;;14.85;99.50;100231.13;6347549;28;20044;-61
2021/06/06 05:06:31;;;;;;;12.48;10.20;;;;;;;14.90;99.68;100223.72;6346488;28;20035;-61
2021/06/06 05:09:32;;;;;;;14.63;9.85;;;;;;;15.03;98.04;100221.00;6347412;28;20520;-61
2021/06/06 05:12:33;;;;;;;12.98;9.88;;;;;;;15.09;98.36;100217.03;6347116;28;20124;-61
2021/06/06 05:15:35;;;;;;;13.10;10.03;;;;;;;15.16;98.49;100220.06;6347807;28;20458;-61
2021/06/06 05:18:36;;;;;;;;;;;;;;;15.22;96.83;100217.78;6347658;28;20040;-62
2021/06/06 05:21:37;;;;;;;10.98;8.90;;;;;;;15.26;96.07;100221.84;6347138;28;19965;-61
2021/06/06 05:24:38;;;;;;;11.35;8.50;;;;;;;15.32;95.23;100226.63;6347085;28;20470;-61
2021/06/06 05:27:39;;;;;;;9.93;8.18;;;;;;;15.39;95.09;100220.88;6347323;28;20126;-61
2021/06/06 05:30:40;;;;;;;11.40;8.37;;;;;;;15.46;94.97;100224.69;6347067;28;20044;-61
2021/06/06 05:33:41;;;;;;;9.57;8.23;;;;;;;15.49;95.05;100232.34;6346017;28;20333;-61
2021/06/06 05:36:42;;;;;;;16.48;8.20;;;;;;;15.52;93.80;100225.06;6346890;28;20493;-61
2021/06/06 05:39:44;;;;;;;10.10;8.00;;;;;;;15.63;94.07;100233.91;6347111;28;20551;-62
2021/06/06 05:42:44;;;;;;;11.35;8.40;;;;;;;15.75;94.25;100226.84;6345534;28;20035;-62
2021/06/06 05:45:49;;;;;;;10.70;8.05;;;;;;;15.82;93.25;100231.50;6346749;28;20093;-61
2021/06/06 05:48:51;;;;;;;11.80;8.70;;;;;;;15.94;93.07;100232.31;6346643;28;20047;-61
2021/06/06 05:51:51;;;;;;;13.38;8.90;;;;;;;16.03;94.86;100235.97;6345397;28;20070;-61
2021/06/06 05:54:53;;;;;;;9.48;7.90;;;;;;;16.11;93.83;100231.75;6346531;28;20051;-61
2021/06/06 05:57:53;;;;;;;9.52;7.97;;;;;;;16.25;92.04;100225.38;6346436;28;20050;-62
2021/06/06 06:00:54;;;;;;;9.20;7.75;;;;;;;16.35;90.54;100228.09;6345392;28;20043;-62
2021/06/06 06:03:55;;;;;;;12.45;7.78;;;;;;;16.40;90.23;100233.81;6346223;28;20422;-61
2021/06/06 06:06:55;;;;;;;13.50;7.57;;;;;;;16.51;89.88;100236.41;6345375;28;20070;-62
2021/06/06 06:09:57;;;;;;;8.02;7.03;;;;;;;16.63;89.97;100242.44;6345065;28;20065;-62
2021/06/06 06:12:58;;;;;;;9.45;6.55;;;;;;;16.72;87.58;100246.94;6345025;28;20089;-62
2021/06/06 06:16:00;;;;;;;8.73;6.60;;;;;;;16.82;86.19;100249.69;6345407;28;20085;-63
2021/06/06 06:19:03;;;;;;;;;;;;;;;16.88;85.36;100248.31;6346566;28;20447;-62
2021/06/06 06:22:05;;;;;;;8.73;6.70;;;;;;;17.00;84.64;100247.25;6344878;28;19920;-62
2021/06/06 06:25:07;;;;;;;7.93;5.80;;;;;;;17.07;84.58;100243.16;6346184;28;20551;-62
2021/06/06 06:28:08;;;;;;;7.35;5.72;;;;;;;17.17;84.07;100243.19;6346324;28;20048;-62
2021/06/06 06:31:09;;;;;;;7.67;6.43;;;;;;;17.27;83.32;100241.44;6345029;28;20062;-62
2021/06/06 06:34:10;;;;;;;8.52;6.20;;;;;;;17.38;83.66;100235.25;6344185;28;20036;-61
2021/06/06 06:37:11;;;;;;;8.48;5.88;;;;;;;17.49;83.63;100244.84;6345371;28;20090;-62
2021/06/06 06:40:14;;;;;;;8.50;6.00;;;;;;;17.59;83.13;100237.81;6345850;28;20109;-60
2021/06/06 06:43:15;;;;;;;7.75;6.18;;;;;;;17.64;81.15;100251.41;6345964;28;20036;-60
2021/06/06 06:46:15;;;;;;;7.43;5.82;;;;;;;17.73;81.96;100242.72;6344548;28;20074;-61
2021/06/06 06:49:17;;;;;;;9.43;6.05;;;;;;;17.84;81.88;100239.16;6344660;28;20437;-61
2021/06/06 06:52:17;;;;;;;9.55;7.05;;;;;;;17.95;81.31;100240.81;6345783;28;20554;-62
2021/06/06 06:55:19;;;;;;;9.85;5.88;;;;;;;18.00;80.17;100240.44;6345917;28;20051;-61
2021/06/06 06:58:21;;;;;;;;;;;;;;;18.05;81.14;100235.56;6328039;28;20036;-59
2021/06/06 07:01:23;;;;;;;8.27;6.20;;;;;;;18.15;81.17;100235.59;6327799;28;20030;-60
2021/06/06 07:04:24;;;;;;;7.78;5.75;;;;;;;18.28;79.62;100236.13;6345648;28;20058;-60
2021/06/06 07:07:26;;;;;;;7.22;5.45;;;;;;;18.39;79.96;100233.38;6346959;28;20039;-60
2021/06/06 07:10:31;;;;;;;8.65;6.50;;;;;;;18.43;79.91;100229.47;6371639;27;20055;-60
2021/06/06 07:13:33;;;;;;;7.43;5.75;;;;;;;18.53;80.34;100226.81;6370073;27;20045;-60
2021/06/06 07:16:37;;;;;;;7.60;5.85;;;;;;;18.66;81.21;100227.34;6369856;28;20055;-61
2021/06/06 07:19:38;;;;;;;7.38;6.00;;;;;;;18.77;78.98;100229.00;6369729;28;20474;-60
2021/06/06 07:22:39;;;;;;;12.97;5.57;;;;;;;18.88;78.50;100230.66;6371152;27;20043;-60
2021/06/06 07:25:42;;;;;;;12.00;6.17;;;;;;;18.92;78.69;100227.63;6352732;28;20049;-60
2021/06/06 07:28:43;;;;;;;6.50;4.97;;;;;;;18.94;76.84;100235.38;6370909;27;20051;-59
2021/06/06 07:31:48;;;;;;;13.50;5.47;;;;;;;19.03;77.87;100223.13;6370772;27;20390;-61
2021/06/06 07:34:49;;;;;;;10.75;6.05;;;;;;;19.11;78.02;100221.44;6344356;28;20044;-61
2021/06/06 07:37:51;;;;;;;6.28;5.03;;;;;;;19.19;75.00;100214.56;6349331;28;20410;-62
2021/06/06 07:40:53;;;;;;;;;;;;;;;19.27;74.52;100214.69;6331909;28;20051;-58
2021/06/06 07:43:57;;;;;;;7.82;4.88;;;;;;;19.35;73.33;100217.41;6349385;28;19942;-58
2021/06/06 07:46:57;;;;;;;4.70;4.20;;;;;;;19.43;74.19;100214.88;6349285;28;20047;-58
2021/06/06 07:49:59;;;;;;;5.67;4.27;;;;;;;19.53;72.46;100218.31;6348416;28;20043;-62
2021/06/06 07:52:59;;;;;;;8.05;4.38;;;;;;;19.63;72.93;100212.97;6331435;28;20039;-65
2021/06/06 07:56:00;;;;;;;7.72;4.20;;;;;;;19.76;73.11;100214.47;6349528;28;20059;-62
2021/06/06 07:59:03;;;;;;;6.80;4.40;;;;;;;19.82;71.56;100219.16;6349321;28;20040;-60
2021/06/06 08:02:04;;;;;;;9.30;4.50;;;;;;;19.86;70.04;100220.53;6349404;28;20052;-60
2021/06/06 08:05:05;;;;;;;5.20;3.90;;;;;;;19.92;70.52;100220.75;6349075;28;20051;-61
2021/06/06 08:08:08;;;;;;;6.88;4.45;;;;;;;19.93;68.53;100219.78;6349416;28;20047;-60
2021/06/06 08:11:10;;;;;;;5.97;3.90;;;;;;;20.04;68.56;100218.72;6348836;28;20516;-61
2021/06/06 08:14:11;;;;;;;5.68;4.55;;;;;;;20.13;69.23;100220.44;6348989;28;20432;-61
2021/06/06 08:17:12;;;;;;;6.07;4.13;;;;;;;20.15;67.15;100219.47;6347632;28;20048;-61
2021/06/06 08:20:36;;;;;;;6.67;4.40;;;;;;;20.22;67.35;100231.13;6348976;28;20401;-61
2021/06/06 08:23:38;;;;;;;7.88;4.10;;;;;;;20.29;68.31;100222.44;6347020;28;20051;-60
2021/06/06 08:26:39;;;;;;;4.47;3.55;;;;;;;20.33;67.16;100222.97;6347401;28;20035;-61
2021/06/06 08:29:41;;;;;;;;;;;;;;;20.43;67.23;100226.34;6349153;28;20043;-61
2021/06/06 08:32:42;;;;;;;6.20;4.15;;;;;;;20.51;66.50;100218.47;6348545;28;19919;-61
2021/06/06 08:35:43;;;;;;;4.23;3.50;;;;;;;20.59;67.24;100225.69;6348274;28;20122;-60
2021/06/06 08:38:44;;;;;;;6.33;3.70;;;;;;;20.63;64.39;100223.53;6348287;28;20414;-60
2021/06/06 08:41:52;;;;;;;4.65;3.70;;;;;;;20.74;65.12;100220.66;6330533;28;20051;-60
2021/06/06 08:45:08;;;;;;;8.00;3.92;;;;;;;20.83;66.85;100222.34;6347744;28;20093;-60
2021/06/06 08:48:09;;;;;;;10.88;4.00;;;;;;;20.81;65.22;100215.56;6348292;28;20154;-60
2021/06/06 08:51:25;;;;;;;4.30;3.13;;;;;;;20.88;62.39;100221.91;6346958;28;20512;-59
2021/06/06 08:54:46;;;;;;;6.95;3.60;;;;;;;20.97;63.28;100222.78;6348251;28;20287;-60
2021/06/06 08:57:50;;;;;;;5.85;3.97;;;;;;;21.00;63.24;100219.81;6347955;28;20043;-60
2021/06/06 09:01:01;;;;;;;6.50;3.83;;;;;;;21.03;62.90;100224.81;6347800;28;20426;-61
2021/06/06 09:04:12;;;;;;;5.97;3.50;;;;;;;21.08;62.97;100212.72;6346584;28;20162;-61
2021/06/06 09:07:26;;;;;;;4.43;3.25;;;;;;;21.19;59.56;100216.09;6347754;28;20052;-61
2021/06/06 09:10:31;;;;;;;5.53;3.10;;;;;;;21.26;58.08;100215.31;6347527;28;20051;-61
2021/06/06 09:13:32;;;;;;;3.85;2.90;;;;;;;21.32;56.92;100216.50;6345924;28;20040;-61
2021/06/06 09:16:50;;;;;;;5.10;3.22;;;;;;;21.38;58.93;100223.00;6346247;28;20044;-61
2021/06/06 09:19:56;;;;;;;4.60;3.13;;;;;;;21.48;58.55;100215.78;6347210;28;20059;-62
2021/06/06 09:23:16;;;;;;;6.07;3.53;;;;;;;21.47;58.10;100212.25;6347414;28;20040;-62
2021/06/06 09:26:19;;;;;;;3.92;3.38;;;;;;;21.55;57.64;100211.47;6347057;28;20518;-61
2021/06/06 09:29:23;;;;;;;5.13;3.50;;;;;;;21.63;57.36;100213.31;6347158;28;20387;-60
2021/06/06 09:32:24;;;;;;;5.68;3.45;;;;;;;21.75;59.99;100217.34;6347159;28;20053;-61
2021/06/06 09:35:31;;;;;;;4.47;3.30;;;;;;;21.88;57.05;100217.69;6347169;28;20039;-61
2021/06/06 09:38:32;;;;;;;10.35;3.72;;;;;;;22.03;60.40;100217.91;6347369;28;20084;-60
2021/06/06 09:41:57;;;;;;;6.17;3.40;;;;;;;22.11;57.91;100220.56;6347187;28;20040;-60
2021/06/06 09:45:10;;;;;;;8.80;3.22;;;;;;;22.14;57.60;100214.91;6345526;28;20058;-61
2021/06/06 09:48:22;;;;;;;9.07;3.20;;;;;;;22.26;53.96;100211.97;6346816;28;20040;-60
2021/06/06 09:51:27;;;;;;;;;;;;;;;22.32;56.28;100206.81;6347124;28;20079;-61
2021/06/06 09:54:33;;;;;;;6.13;3.35;;;;;;;22.46;54.18;100210.63;6346645;28;20356;-60
2021/06/06 09:57:38;;;;;;;6.13;3.35;;;;;;;22.50;52.33;100203.97;6344277;28;20036;-61
2021/06/06 10:00:44;;;;;;;8.23;3.13;;;;;;;22.63;48.59;100210.59;6346254;28;20043;-61
2021/06/06 10:03:53;;;;;;;12.05;3.45;;;;;;;22.68;51.95;100201.13;6346395;28;20062;-59
2021/06/06 10:07:10;;;;;;;10.05;3.60;;;;;;;22.77;52.46;100201.13;6345217;28;20040;-59
2021/06/06 10:10:18;;;;;;;4.05;2.97;;;;;;;22.82;50.75;100202.28;6346048;28;20089;-59
2021/06/06 10:13:27;;;;;;;5.55;2.97;;;;;;;22.89;46.67;100205.06;6346452;28;20051;-58
2021/06/06 10:16:50;;;;;;;5.82;2.92;;;;;;;23.04;49.59;100199.91;6346236;28;20044;-59
2021/06/06 10:20:05;;;;;;;3.55;2.90;;;;;;;23.05;47.58;100193.59;6345199;28;20046;-59
2021/06/06 10:23:16;;;;;;;5.55;2.70;;;;;;;22.78;46.54;100197.47;6346098;28;20044;-59
2021/06/06 10:26:41;;;;;;;11.50;2.80;;;;;;;22.57;47.45;100193.50;6346554;28;20122;-59
2021/06/06 10:29:54;;;;;;;4.32;2.90;;;;;;;22.79;48.99;100202.59;6345808;28;20410;-59
2021/06/06 10:33:03;;;;;;;5.97;3.28;;;;;;;22.99;48.58;100194.25;6346039;28;20498;-59
2021/06/06 10:36:05;;;;;;;5.00;2.90;;;;;;;23.05;46.36;100190.94;6346049;28;20482;-60
2021/06/06 10:39:38;;;;;;;8.63;3.00;;;;;;;23.10;45.92;100192.09;6344701;28;20442;-61
2021/06/06 10:42:49;;;;;;;5.20;3.40;;;;;;;23.06;49.92;100192.59;6337673;28;20051;-60
2021/06/06 10:46:10;;;;;;;5.88;3.10;;;;;;;23.23;48.22;100182.72;6344594;28;20071;-61
2021/06/06 10:49:20;;;;;;;8.95;3.22;;;;;;;23.42;49.27;100190.28;6344759;28;20097;-61
2021/06/06 10:52:26;;;;;;;3.60;2.28;;;;;;;23.48;42.17;100188.75;6345846;28;20036;-61
2021/06/06 10:55:31;;;;;;;4.03;2.28;;;;;;;23.53;42.38;100189.91;6345702;28;20047;-60
2021/06/06 10:58:48;;;;;;;9.05;2.85;;;;;;;23.61;41.05;100186.34;6345836;28;20039;-61
2021/06/06 11:01:54;;;;;;;3.80;2.45;;;;;;;23.68;42.08;100189.13;6345783;28;20070;-60
2021/06/06 11:04:57;;;;;;;4.45;2.90;;;;;;;23.81;44.72;100188.63;6345736;28;20047;-61
2021/06/06 11:07:58;;;;;;;5.80;2.60;;;;;;;23.90;43.09;100191.03;6346008;28;20177;-59
2021/06/06 11:11:16;;;;;;;4.97;2.50;;;;;;;23.97;41.30;100185.84;6349187;28;20406;-62
2021/06/06 11:14:18;;;;;;;2.75;2.22;;;;;;;24.03;37.40;100190.44;6350459;28;20510;-63
2021/06/06 11:17:38;;;;;;;5.65;2.83;;;;;;;24.11;40.22;100186.88;6349025;28;20051;-63
2021/06/06 11:20:59;;;;;;;3.75;2.50;;;;;;;24.18;40.17;100182.50;6332879;28;20036;-63
2021/06/06 11:24:04;;;;;;;6.38;2.70;;;;;;;24.36;42.06;100176.84;6349279;28;20055;-63
2021/06/06 11:27:26;;;;;;;4.70;2.70;;;;;;;24.53;41.46;100175.72;6350028;28;20046;-63
2021/06/06 11:30:29;;;;;;;8.07;2.50;;;;;;;24.65;39.73;100181.44;6350112;28;20036;-63
2021/06/06 11:33:38;;;;;;;6.47;2.67;;;;;;;24.71;38.85;100178.03;6349993;28;20040;-63
2021/06/06 11:36:45;;;;;;;5.35;2.45;;;;;;;24.79;39.73;100173.63;6348858;28;20062;-63
2021/06/06 11:39:47;;;;;;;4.97;2.60;;;;;;;25.01;42.77;100174.56;6348391;28;20497;-64
2021/06/06 11:42:48;;;;;;;6.22;2.50;;;;;;;25.17;41.35;100158.34;6350129;28;20051;-59
2021/06/06 11:45:53;;;;;;;3.30;2.47;;;;;;;25.20;37.88;100163.28;6350030;28;20120;-58
2021/06/06 11:49:01;;;;;;;4.25;2.50;;;;;;;25.30;40.09;100161.19;6349792;28;20092;-57
2021/06/06 11:52:09;;;;;;;4.60;2.50;;;;;;;25.54;38.38;100141.34;6349583;28;20044;-57
2021/06/06 11:55:24;;;;;;;3.22;2.42;;;;;;;25.81;38.21;100151.47;6349749;28;20402;-57
2021/06/06 11:58:35;;;;;;;6.40;2.90;;;;;;;26.66;35.42;100153.22;6349249;28;20040;-57
2021/06/06 12:01:48;;;;;;;2.95;2.50;;;;;;;28.58;31.59;100153.97;6349509;28;20043;-58
2021/06/06 12:04:49;;;;;;;4.30;2.30;;;;;;;30.56;29.95;100148.72;6349200;28;20443;-57
2021/06/06 12:07:52;;;;;;;3.20;2.03;;;;;;;31.62;26.00;100144.78;6348015;28;20462;-58
2021/06/06 12:10:56;;;;;;;2.85;2.20;;;;;;;33.01;26.05;100146.16;6347729;28;20058;-57
2021/06/06 12:14:17;;;;;;;4.13;2.40;;;;;;;33.30;24.13;100138.91;6349138;28;20051;-56
2021/06/06 12:17:22;;;;;;;4.00;2.00;;;;;;;34.41;23.22;100142.13;6348901;28;20044;-57
2021/06/06 12:20:23;;;;;;;2.42;2.00;;;;;;;34.71;22.72;100139.84;6330080;28;20538;-57
2021/06/06 12:23:30;;;;;;;4.60;2.45;;;;;;;35.19;22.50;100137.50;6348711;28;20042;-57
2021/06/06 12:26:43;;;;;;;3.38;1.90;;;;;;;35.54;21.76;100138.09;6348879;28;20092;-57
2021/06/06 12:29:55;;;;;;;3.72;2.17;;;;;;;34.94;21.06;100137.16;6348582;28;20088;-57
2021/06/06 12:32:59;;;;;;;5.40;2.00;;;;;;;35.45;21.31;100124.97;6348540;28;20447;-56
2021/06/06 12:36:19;;;;;;;7.13;2.42;;;;;;;35.16;22.97;100126.31;6348405;28;20384;-56
2021/06/06 12:39:21;;;;;;;4.05;2.17;;;;;;;34.16;23.64;100127.13;6348254;28;20066;-57
2021/06/06 12:42:24;;;;;;;3.20;1.90;;;;;;;32.51;23.84;100134.00;6347228;28;20039;-58
2021/06/06 12:45:27;;;;;;;4.50;2.20;;;;;;;31.16;26.87;100127.38;6347076;28;20039;-56
2021/06/06 12:48:32;;;;;;;4.38;2.15;;;;;;;30.11;26.99;100128.22;6346962;28;20051;-55
2021/06/06 12:51:33;;;;;;;3.42;2.30;;;;;;;29.29;28.40;100125.44;6348103;28;20040;-53
2021/06/06 12:54:39;;;;;;;3.97;2.15;;;;;;;28.87;29.03;100127.69;6347051;28;20482;-55
2021/06/06 12:58:10;;;;;;;3.88;2.17;;;;;;;28.78;29.88;100123.56;6346695;28;20036;-58
2021/06/06 13:01:13;;;;;;;5.10;2.53;;;;;;;28.47;30.63;100120.50;6347696;28;20055;-58
2021/06/06 13:04:22;;;;;;;5.15;2.17;;;;;;;28.15;29.36;100114.16;6348009;28;20043;-58
2021/06/06 13:07:29;;;;;;;3.55;2.20;;;;;;;27.96;32.03;100121.16;6347591;28;20445;-58
2021/06/06 13:10:42;;;;;;;4.25;2.20;;;;;;;27.90;29.50;100119.28;6346234;28;20051;-58
2021/06/06 13:13:51;;;;;;;4.07;2.00;;;;;;;27.49;30.15;100113.03;6346351;28;20043;-58
2021/06/06 13:17:01;;;;;;;2.35;2.10;;;;;;;27.54;32.88;100107.06;6347642;28;20047;-58
2021/06/06 13:20:17;;;;;;;3.10;2.20;;;;;;;27.59;31.83;100109.94;6346063;28;20047;-58
2021/06/06 13:23:38;;;;;;;4.32;2.30;;;;;;;27.35;29.94;100099.81;6346271;28;20048;-58
2021/06/06 13:26:45;;;;;;;3.53;2.17;;;;;;;27.59;29.73;100111.81;6346016;28;20539;-58
2021/06/06 13:29:57;;;;;;;6.57;2.30;;;;;;;27.58;32.80;100107.50;6347187;28;20048;-58
2021/06/06 13:33:01;;;;;;;6.45;2.25;;;;;;;27.49;33.09;100101.50;6347308;28;20051;-58
2021/06/06 13:36:03;;;;;;;3.45;2.20;;;;;;;27.20;31.45;100092.75;6345798;28;20059;-58
2021/06/06 13:39:17;;;;;;;2.40;2.20;;;;;;;27.00;34.81;100089.19;6328631;28;20451;-58
2021/06/06 13:42:23;;;;;;;6.15;2.90;;;;;;;27.15;32.09;100095.19;6347103;28;20067;-58
2021/06/06 13:45:28;;;;;;;2.58;2.28;;;;;;;27.21;30.02;100099.75;6347114;28;20048;-58
2021/06/06 13:48:34;;;;;;;3.92;2.22;;;;;;;27.01;32.00;100093.50;6345621;28;20082;-58
2021/06/06 13:51:35;;;;;;;6.10;2.10;;;;;;;26.98;31.91;100086.69;6346710;28;20436;-59
2021/06/06 13:54:36;;;;;;;3.97;2.30;;;;;;;26.91;32.07;100085.81;6346613;28;20076;-55
2021/06/06 13:57:37;;;;;;;4.68;2.22;;;;;;;26.66;30.45;100085.50;6346486;28;20110;-56
2021/06/06 14:00:39;;;;;;;6.18;2.22;;;;;;;26.71;32.20;100080.41;6345404;28;20061;-56
2021/06/06 14:03:41;;;;;;;2.78;2.00;;;;;;;26.53;32.68;100095.09;6345165;28;20062;-56
2021/06/06 14:06:43;;;;;;;4.38;2.10;;;;;;;26.85;31.41;100097.31;6328664;28;20482;-56
2021/06/06 14:09:44;;;;;;;3.58;2.17;;;;;;;26.92;31.86;100090.16;6346109;28;20158;-56
2021/06/06 14:12:45;;;;;;;4.53;2.13;;;;;;;26.70;33.96;100078.72;6345422;28;20059;-56
2021/06/06 14:15:46;;;;;;;2.22;2.03;;;;;;;26.66;34.04;100085.50;6345104;28;20039;-57
2021/06/06 14:18:47;;;;;;;2.17;1.83;;;;;;;26.72;30.23;100085.53;6344932;28;20039;-56